createdAt,value
2018-07-02T00:00:56.807Z,19.90
2018-07-02T00:01:56.828Z,20.00
2018-07-02T00:02:56.824Z,20.04
2018-07-02T00:03:56.823Z,20.02
2018-07-02T00:04:56.825Z,20.12
2018-07-02T00:05:56.522Z,20.04
2018-07-02T00:06:56.564Z,20.02
2018-07-02T00:07:56.849Z,19.89
2018-07-02T00:08:56.810Z,19.64
2018-07-02T00:09:56.573Z,19.67
2018-07-02T00:10:58.360Z,19.79
2018-07-02T00:11:56.544Z,19.68
2018-07-02T00:12:56.611Z,19.62
2018-07-02T00:13:56.845Z,19.79
2018-07-02T00:14:56.855Z,19.76
2018-07-02T00:15:56.847Z,19.83
2018-07-02T00:16:56.834Z,19.80
2018-07-02T00:17:56.356Z,19.70
2018-07-02T00:18:56.849Z,19.64
2018-07-02T00:19:56.602Z,19.64
2018-07-02T00:20:56.855Z,19.67
2018-07-02T00:21:56.856Z,19.75
2018-07-02T00:22:56.850Z,19.76
2018-07-02T00:23:56.838Z,19.79
2018-07-02T00:24:56.841Z,19.64
2018-07-02T00:25:56.609Z,19.57
2018-07-02T00:26:58.367Z,19.65
2018-07-02T00:27:56.829Z,19.62
2018-07-02T00:28:56.867Z,19.55
2018-07-02T00:29:56.812Z,19.55
2018-07-02T00:30:56.818Z,19.57
2018-07-02T00:31:56.833Z,19.52
2018-07-02T00:32:56.853Z,19.57
2018-07-02T00:33:56.813Z,19.58
2018-07-02T00:34:56.832Z,19.55
2018-07-02T00:35:56.832Z,19.52
2018-07-02T00:36:56.613Z,19.49
2018-07-02T00:37:56.849Z,19.49
2018-07-02T00:38:56.837Z,19.39
2018-07-02T00:39:56.857Z,19.38
2018-07-02T00:40:56.583Z,19.42
2018-07-02T00:41:56.590Z,19.47
2018-07-02T00:42:56.576Z,19.53
2018-07-02T00:43:56.547Z,19.50
2018-07-02T00:44:56.857Z,19.46
2018-07-02T00:45:56.828Z,19.35
2018-07-02T00:46:56.857Z,19.55
2018-07-02T00:47:56.857Z,19.47
2018-07-02T00:48:56.627Z,19.35
2018-07-02T00:49:58.356Z,19.52
2018-07-02T00:50:56.567Z,19.45
2018-07-02T00:51:56.861Z,19.40
2018-07-02T00:52:56.824Z,19.32
2018-07-02T00:53:56.627Z,19.35
2018-07-02T00:54:56.825Z,19.30
2018-07-02T00:55:56.627Z,19.28
2018-07-02T00:56:56.857Z,19.23
2018-07-02T00:57:56.863Z,19.31
2018-07-02T00:58:56.843Z,19.12
2018-07-02T00:59:56.850Z,19.20
2018-07-02T01:00:56.625Z,19.21
2018-07-02T01:01:56.141Z,19.05
2018-07-02T01:02:56.819Z,18.94
2018-07-02T01:03:56.847Z,19.16
2018-07-02T01:04:56.602Z,19.24
2018-07-02T01:05:56.927Z,19.16
2018-07-02T01:06:56.866Z,19.23
2018-07-02T01:07:56.869Z,19.23
2018-07-02T01:08:56.862Z,19.21
2018-07-02T01:09:56.349Z,19.17
2018-07-02T01:10:56.605Z,19.25
2018-07-02T01:11:56.863Z,19.17
2018-07-02T01:12:56.875Z,19.12
2018-07-02T01:13:56.863Z,19.09
2018-07-02T01:14:56.902Z,18.99
2018-07-02T01:15:56.835Z,19.06
2018-07-02T01:16:56.854Z,19.06
2018-07-02T01:17:56.861Z,19.07
2018-07-02T01:18:56.845Z,18.96
2018-07-02T01:19:57.184Z,19.01
2018-07-02T01:20:58.829Z,19.10
2018-07-02T01:21:56.870Z,19.07
2018-07-02T01:22:58.439Z,18.97
2018-07-02T01:23:56.873Z,19.01
2018-07-02T01:24:56.873Z,19.05
2018-07-02T01:25:56.885Z,19.12
2018-07-02T01:26:56.850Z,19.10
2018-07-02T01:27:56.888Z,19.07
2018-07-02T01:28:56.608Z,18.82
2018-07-02T01:29:56.878Z,18.96
2018-07-02T01:30:56.857Z,18.84
2018-07-02T01:31:56.874Z,18.96
2018-07-02T01:32:56.879Z,18.93
2018-07-02T01:33:56.871Z,18.94
2018-07-02T01:34:56.874Z,19.01
2018-07-02T01:35:56.369Z,18.90
2018-07-02T01:36:56.847Z,18.91
2018-07-02T01:37:56.602Z,18.76
2018-07-02T01:38:56.854Z,18.76
2018-07-02T01:39:56.608Z,18.84
2018-07-02T01:40:56.885Z,18.83
2018-07-02T01:41:56.879Z,18.76
2018-07-02T01:42:56.541Z,18.83
2018-07-02T01:43:56.595Z,18.72
2018-07-02T01:44:56.326Z,18.62
2018-07-02T01:45:56.883Z,18.62
2018-07-02T01:46:56.826Z,18.69
2018-07-02T01:47:56.871Z,18.66
2018-07-02T01:48:56.885Z,18.78
2018-07-02T01:49:56.880Z,18.69
2018-07-02T01:50:56.880Z,18.75
2018-07-02T01:51:56.892Z,18.69
2018-07-02T01:52:56.893Z,18.78
2018-07-02T01:53:56.840Z,18.69
2018-07-02T01:54:56.851Z,18.62
2018-07-02T01:55:56.684Z,18.49
2018-07-02T01:56:56.338Z,18.64
2018-07-02T01:57:56.847Z,18.51
2018-07-02T01:58:56.865Z,18.59
2018-07-02T01:59:56.867Z,18.68
2018-07-02T02:00:56.845Z,18.62
2018-07-02T02:01:56.861Z,18.62
2018-07-02T02:02:56.632Z,18.60
2018-07-02T02:03:56.603Z,18.76
2018-07-02T02:04:56.660Z,18.62
2018-07-02T02:05:56.575Z,18.65
2018-07-02T02:06:56.130Z,18.60
2018-07-02T02:07:56.600Z,18.65
2018-07-02T02:08:56.869Z,18.53
2018-07-02T02:09:56.862Z,18.42
2018-07-02T02:10:58.421Z,18.50
2018-07-02T02:11:56.868Z,18.46
2018-07-02T02:12:56.661Z,18.46
2018-07-02T02:13:56.834Z,18.39
2018-07-02T02:14:56.873Z,18.35
2018-07-02T02:15:56.851Z,18.42
2018-07-02T02:16:56.887Z,18.38
2018-07-02T02:17:56.852Z,18.42
2018-07-02T02:18:56.851Z,18.26
2018-07-02T02:19:56.846Z,18.16
2018-07-02T02:20:56.852Z,18.14
2018-07-02T02:21:56.666Z,18.16
2018-07-02T02:22:56.893Z,18.17
2018-07-02T02:23:56.867Z,18.14
2018-07-02T02:24:56.868Z,18.23
2018-07-02T02:25:56.855Z,18.13
2018-07-02T02:26:56.858Z,18.20
2018-07-02T02:27:56.875Z,18.04
2018-07-02T02:28:56.854Z,18.14
2018-07-02T02:29:56.877Z,18.21
2018-07-02T02:30:56.851Z,18.07
2018-07-02T02:31:56.870Z,18.07
2018-07-02T02:32:56.729Z,18.05
2018-07-02T02:33:56.850Z,18.09
2018-07-02T02:34:56.647Z,18.04
2018-07-02T02:35:56.857Z,17.92
2018-07-02T02:36:56.915Z,17.94
2018-07-02T02:37:56.875Z,17.91
2018-07-02T02:38:56.671Z,17.91
2018-07-02T02:39:56.627Z,17.84
2018-07-02T02:40:56.653Z,17.79
2018-07-02T02:41:56.833Z,17.89
2018-07-02T02:42:56.953Z,17.74
2018-07-02T02:43:56.855Z,17.89
2018-07-02T02:44:56.377Z,17.71
2018-07-02T02:45:56.571Z,17.83
2018-07-02T02:46:56.883Z,17.60
2018-07-02T02:47:56.888Z,17.73
2018-07-02T02:48:56.858Z,17.71
2018-07-02T02:49:56.882Z,17.77
2018-07-02T02:50:56.862Z,17.80
2018-07-02T02:51:56.698Z,17.84
2018-07-02T02:52:56.855Z,17.63
2018-07-02T02:53:56.886Z,17.54
2018-07-02T02:54:56.962Z,17.65
2018-07-02T02:55:56.895Z,17.77
2018-07-02T02:56:56.164Z,17.63
2018-07-02T02:57:56.703Z,17.68
2018-07-02T02:58:56.877Z,17.74
2018-07-02T02:59:56.880Z,17.63
2018-07-02T03:00:57.224Z,17.71
2018-07-02T03:01:56.191Z,17.68
2018-07-02T03:02:56.691Z,17.71
2018-07-02T03:03:56.924Z,17.83
2018-07-02T03:04:56.665Z,17.73
2018-07-02T03:05:56.907Z,17.62
2018-07-02T03:06:56.909Z,17.68
2018-07-02T03:07:56.402Z,17.63
2018-07-02T03:08:56.670Z,17.58
2018-07-02T03:09:56.695Z,17.55
2018-07-02T03:10:56.886Z,17.53
2018-07-02T03:11:56.867Z,17.62
2018-07-02T03:12:56.884Z,17.58
2018-07-02T03:13:56.890Z,17.55
2018-07-02T03:14:56.869Z,17.57
2018-07-02T03:15:56.676Z,17.60
2018-07-02T03:16:56.167Z,17.54
2018-07-02T03:17:56.707Z,17.53
2018-07-02T03:18:56.741Z,17.57
2018-07-02T03:19:56.665Z,17.40
2018-07-02T03:20:56.916Z,17.33
2018-07-02T03:21:56.910Z,17.45
2018-07-02T03:22:56.909Z,17.38
2018-07-02T03:23:56.866Z,17.46
2018-07-02T03:24:56.882Z,17.25
2018-07-02T03:25:56.919Z,17.28
2018-07-02T03:26:56.928Z,17.27
2018-07-02T03:27:56.869Z,17.40
2018-07-02T03:28:56.892Z,17.45
2018-07-02T03:29:56.390Z,17.42
2018-07-02T03:30:56.938Z,17.39
2018-07-02T03:31:56.919Z,17.38
2018-07-02T03:32:56.871Z,17.30
2018-07-02T03:33:57.396Z,17.35
2018-07-02T03:34:56.876Z,17.35
2018-07-02T03:35:56.900Z,17.32
2018-07-02T03:36:56.918Z,17.33
2018-07-02T03:37:56.143Z,17.36
2018-07-02T03:38:57.325Z,17.27
2018-07-02T03:39:56.450Z,17.40
2018-07-02T03:40:58.804Z,17.39
2018-07-02T03:41:56.693Z,17.36
2018-07-02T03:42:56.896Z,17.36
2018-07-02T03:43:56.946Z,17.32
2018-07-02T03:44:56.691Z,17.30
2018-07-02T03:45:56.682Z,17.30
2018-07-02T03:46:56.873Z,17.39
2018-07-02T03:47:56.948Z,17.39
2018-07-02T03:48:56.916Z,17.46
2018-07-02T03:49:56.924Z,17.28
2018-07-02T03:50:56.390Z,17.35
2018-07-02T03:51:56.945Z,17.39
2018-07-02T03:52:56.852Z,17.35
2018-07-02T03:53:56.875Z,17.35
2018-07-02T03:54:57.074Z,17.36
2018-07-02T03:55:56.918Z,17.35
2018-07-02T03:56:56.931Z,17.35
2018-07-02T03:57:56.379Z,17.21
2018-07-02T03:58:56.900Z,17.28
2018-07-02T03:59:56.897Z,17.17
2018-07-02T04:00:56.903Z,17.27
2018-07-02T04:01:56.902Z,17.30
2018-07-02T04:02:56.982Z,17.22
2018-07-02T04:03:56.882Z,17.24
2018-07-02T04:04:56.899Z,17.21
2018-07-02T04:05:56.886Z,17.18
2018-07-02T04:06:56.426Z,17.24
2018-07-02T04:07:56.926Z,17.27
2018-07-02T04:08:56.675Z,17.17
2018-07-02T04:09:56.680Z,17.20
2018-07-02T04:10:56.935Z,17.27
2018-07-02T04:11:56.616Z,17.25
2018-07-02T04:12:56.670Z,17.21
2018-07-02T04:13:56.927Z,17.18
2018-07-02T04:14:56.910Z,17.32
2018-07-02T04:15:56.926Z,17.27
2018-07-02T04:16:56.935Z,17.27
2018-07-02T04:17:56.899Z,17.27
2018-07-02T04:18:56.913Z,17.27
2018-07-02T04:19:56.932Z,17.12
2018-07-02T04:20:56.440Z,17.30
2018-07-02T04:21:56.938Z,17.17
2018-07-02T04:22:56.148Z,17.24
2018-07-02T04:23:56.910Z,17.22
2018-07-02T04:24:56.988Z,17.40
2018-07-02T04:25:56.980Z,17.40
2018-07-02T04:26:56.936Z,17.35
2018-07-02T04:27:56.746Z,17.32
2018-07-02T04:28:56.441Z,17.25
2018-07-02T04:29:56.937Z,17.21
2018-07-02T04:30:56.940Z,17.18
2018-07-02T04:31:56.942Z,17.30
2018-07-02T04:32:56.917Z,17.36
2018-07-02T04:33:56.779Z,17.36
2018-07-02T04:34:56.397Z,17.36
2018-07-02T04:35:56.932Z,17.46
2018-07-02T04:36:56.943Z,17.38
2018-07-02T04:37:56.930Z,17.43
2018-07-02T04:38:56.124Z,17.49
2018-07-02T04:39:56.929Z,17.51
2018-07-02T04:40:56.967Z,17.60
2018-07-02T04:41:56.941Z,17.62
2018-07-02T04:42:56.940Z,17.49
2018-07-02T04:43:57.096Z,17.58
2018-07-02T04:44:56.447Z,17.55
2018-07-02T04:45:56.625Z,17.65
2018-07-02T04:46:56.933Z,17.51
2018-07-02T04:47:56.942Z,17.54
2018-07-02T04:48:56.898Z,17.60
2018-07-02T04:49:56.444Z,17.65
2018-07-02T04:50:56.905Z,17.60
2018-07-02T04:51:56.891Z,17.57
2018-07-02T04:52:56.893Z,17.51
2018-07-02T04:53:56.899Z,17.63
2018-07-02T04:54:59.010Z,17.60
2018-07-02T04:55:56.472Z,17.65
2018-07-02T04:56:56.447Z,17.63
2018-07-02T04:57:56.902Z,17.71
2018-07-02T04:58:56.995Z,17.63
2018-07-02T04:59:56.446Z,17.80
2018-07-02T05:00:56.951Z,17.73
2018-07-02T05:01:56.440Z,17.83
2018-07-02T05:02:56.446Z,17.76
2018-07-02T05:03:56.590Z,17.79
2018-07-02T05:04:56.940Z,17.73
2018-07-02T05:05:56.455Z,17.68
2018-07-02T05:06:56.410Z,17.81
2018-07-02T05:07:56.909Z,17.99
2018-07-02T05:08:56.929Z,17.79
2018-07-02T05:09:56.925Z,17.92
2018-07-02T05:10:56.685Z,17.92
2018-07-02T05:11:56.946Z,17.96
2018-07-02T05:12:57.257Z,17.76
2018-07-02T05:13:57.340Z,17.83
2018-07-02T05:14:56.900Z,17.95
2018-07-02T05:15:56.948Z,17.99
2018-07-02T05:16:58.554Z,18.09
2018-07-02T05:17:56.966Z,18.16
2018-07-02T05:18:56.446Z,18.11
2018-07-02T05:19:58.969Z,18.14
2018-07-02T05:20:56.990Z,18.20
2018-07-02T05:21:57.121Z,18.13
2018-07-02T05:22:56.786Z,18.05
2018-07-02T05:23:56.991Z,18.10
2018-07-02T05:24:56.455Z,18.13
2018-07-02T05:25:56.414Z,18.38
2018-07-02T05:26:56.980Z,18.31
2018-07-02T05:27:56.677Z,18.23
2018-07-02T05:28:58.795Z,18.34
2018-07-02T05:29:56.470Z,18.38
2018-07-02T05:30:57.053Z,18.42
2018-07-02T05:31:58.508Z,18.26
2018-07-02T05:32:56.936Z,18.19
2018-07-02T05:33:56.415Z,18.10
2018-07-02T05:34:57.229Z,18.23
2018-07-02T05:35:56.454Z,18.39
2018-07-02T05:36:56.961Z,18.39
2018-07-02T05:37:56.956Z,18.44
2018-07-02T05:38:56.458Z,18.32
2018-07-02T05:39:56.969Z,18.31
2018-07-02T05:40:56.057Z,18.39
2018-07-02T05:41:56.962Z,18.39
2018-07-02T05:42:56.457Z,18.41
2018-07-02T05:43:56.935Z,18.50
2018-07-02T05:44:58.963Z,18.46
2018-07-02T05:45:57.895Z,18.39
2018-07-02T05:46:56.914Z,18.28
2018-07-02T05:47:57.119Z,18.44
2018-07-02T05:48:57.005Z,18.44
2018-07-02T05:49:56.339Z,18.59
2018-07-02T05:50:56.984Z,18.62
2018-07-02T05:51:56.912Z,18.69
2018-07-02T05:52:57.014Z,18.78
2018-07-02T05:53:56.470Z,18.83
2018-07-02T05:54:57.017Z,18.75
2018-07-02T05:55:57.380Z,18.87
2018-07-02T05:56:57.023Z,18.76
2018-07-02T05:57:56.468Z,18.82
2018-07-02T05:58:56.997Z,18.84
2018-07-02T05:59:57.015Z,18.78
2018-07-02T06:00:56.979Z,18.83
2018-07-02T06:01:56.918Z,18.79
2018-07-02T06:02:56.970Z,18.90
2018-07-02T06:03:56.925Z,19.01
2018-07-02T06:04:56.966Z,18.94
2018-07-02T06:05:56.993Z,19.05
2018-07-02T06:06:56.425Z,19.07
2018-07-02T06:07:56.768Z,19.17
2018-07-02T06:08:57.341Z,19.16
2018-07-02T06:09:56.993Z,19.24
2018-07-02T06:11:03.467Z,19.24
2018-07-02T06:11:56.752Z,19.25
2018-07-02T06:12:56.423Z,19.27
2018-07-02T06:13:56.285Z,19.32
2018-07-02T06:14:56.429Z,19.24
2018-07-02T06:15:55.726Z,19.17
2018-07-02T06:16:56.473Z,19.15
2018-07-02T06:17:56.152Z,19.24
2018-07-02T06:18:56.349Z,19.15
2018-07-02T06:19:56.288Z,19.23
2018-07-02T06:20:57.978Z,19.17
2018-07-02T06:21:56.032Z,19.27
2018-07-02T06:22:56.936Z,19.24
2018-07-02T06:23:56.275Z,19.15
2018-07-02T06:24:59.030Z,19.23
2018-07-02T06:25:57.060Z,19.27
2018-07-02T06:26:56.968Z,19.31
2018-07-02T06:27:57.587Z,19.35
2018-07-02T06:28:56.949Z,19.39
2018-07-02T06:29:56.932Z,19.20
2018-07-02T06:30:57.296Z,19.30
2018-07-02T06:31:58.481Z,19.40
2018-07-02T06:32:56.964Z,19.52
2018-07-02T06:33:56.935Z,19.46
2018-07-02T06:34:56.936Z,19.60
2018-07-02T06:35:56.985Z,19.68
2018-07-02T06:36:56.988Z,19.70
2018-07-02T06:37:56.473Z,19.71
2018-07-02T06:38:56.735Z,19.86
2018-07-02T06:39:56.982Z,19.62
2018-07-02T06:40:57.033Z,19.62
2018-07-02T06:41:56.989Z,19.60
2018-07-02T06:42:56.488Z,19.79
2018-07-02T06:43:57.017Z,19.94
2018-07-02T06:44:56.982Z,19.79
2018-07-02T06:45:56.734Z,19.92
2018-07-02T06:46:56.746Z,20.04
2018-07-02T06:47:57.262Z,20.04
2018-07-02T06:48:57.022Z,19.97
2018-07-02T06:49:57.035Z,20.02
2018-07-02T06:50:56.936Z,20.05
2018-07-02T06:51:56.983Z,20.12
2018-07-02T06:52:57.997Z,20.20
2018-07-02T06:53:57.043Z,20.27
2018-07-02T06:55:17.006Z,20.41
2018-07-02T06:55:56.805Z,20.34
2018-07-02T06:56:56.989Z,20.40
2018-07-02T06:57:56.030Z,20.41
2018-07-02T06:58:56.505Z,20.41
2018-07-02T06:59:57.440Z,20.50
2018-07-02T07:00:56.482Z,20.53
2018-07-02T07:01:57.037Z,20.58
2018-07-02T07:02:58.705Z,20.51
2018-07-02T07:03:57.020Z,20.54
2018-07-02T07:04:57.428Z,20.53
2018-07-02T07:05:56.992Z,20.61
2018-07-02T07:06:57.040Z,20.58
2018-07-02T07:07:57.058Z,20.51
2018-07-02T07:08:56.990Z,20.50
2018-07-02T07:09:59.925Z,20.75
2018-07-02T07:10:57.026Z,20.72
2018-07-02T07:11:56.962Z,20.64
2018-07-02T07:12:56.787Z,20.75
2018-07-02T07:13:56.446Z,20.75
2018-07-02T07:14:56.951Z,20.90
2018-07-02T07:15:56.954Z,20.91
2018-07-02T07:16:56.950Z,20.90
2018-07-02T07:17:59.034Z,21.03
2018-07-02T07:18:56.948Z,21.06
2018-07-02T07:19:57.048Z,21.12
2018-07-02T07:20:56.773Z,20.87
2018-07-02T07:21:57.504Z,21.05
2018-07-02T07:22:57.024Z,21.13
2018-07-02T07:23:56.455Z,21.13
2018-07-02T07:24:56.790Z,21.00
2018-07-02T07:25:56.956Z,21.08
2018-07-02T07:26:57.035Z,21.06
2018-07-02T07:27:56.761Z,21.05
2018-07-02T07:28:59.100Z,21.12
2018-07-02T07:29:56.540Z,21.06
2018-07-02T07:30:57.455Z,21.15
2018-07-02T07:31:56.997Z,21.24
2018-07-02T07:32:56.932Z,21.33
2018-07-02T07:33:59.798Z,21.33
2018-07-02T07:34:56.958Z,21.37
2018-07-02T07:35:56.956Z,21.22
2018-07-02T07:36:56.958Z,21.42
2018-07-02T07:37:57.054Z,21.58
2018-07-02T07:39:19.534Z,21.63
2018-07-02T07:39:58.972Z,21.68
2018-07-02T07:40:57.084Z,21.63
2018-07-02T07:42:04.829Z,21.43
2018-07-02T07:42:56.510Z,21.38
2018-07-02T07:43:57.315Z,21.33
2018-07-02T07:44:56.894Z,21.36
2018-07-02T07:45:57.547Z,21.33
2018-07-02T07:46:57.063Z,21.34
2018-07-02T07:47:56.977Z,21.42
2018-07-02T07:48:56.538Z,21.37
2018-07-02T07:49:57.043Z,21.43
2018-07-02T07:50:59.215Z,21.56
2018-07-02T07:51:56.417Z,21.58
2018-07-02T07:52:57.088Z,21.74
2018-07-02T07:53:57.025Z,21.81
2018-07-02T07:54:56.316Z,21.75
2018-07-02T07:55:57.070Z,21.90
2018-07-02T07:56:57.100Z,21.86
2018-07-02T07:57:57.514Z,21.81
2018-07-02T07:58:58.035Z,21.91
2018-07-02T07:59:57.050Z,21.81
2018-07-02T08:00:56.476Z,21.79
2018-07-02T08:01:55.125Z,21.89
2018-07-02T08:02:58.531Z,21.79
2018-07-02T08:03:56.507Z,21.66
2018-07-02T08:04:56.967Z,21.61
2018-07-02T08:05:56.338Z,21.64
2018-07-02T08:06:56.534Z,21.73
2018-07-02T08:07:56.543Z,21.90
2018-07-02T08:08:57.013Z,22.04
2018-07-02T08:09:56.520Z,22.14
2018-07-02T08:10:57.058Z,22.20
2018-07-02T08:11:56.378Z,22.05
2018-07-02T08:12:56.479Z,22.09
2018-07-02T08:13:56.862Z,22.19
2018-07-02T08:14:56.543Z,22.21
2018-07-02T08:15:56.322Z,22.14
2018-07-02T08:16:56.153Z,22.08
2018-07-02T08:17:56.377Z,22.08
2018-07-02T08:18:56.557Z,21.99
2018-07-02T08:19:56.984Z,22.04
2018-07-02T08:20:56.468Z,22.15
2018-07-02T08:21:57.757Z,22.41
2018-07-02T08:22:57.311Z,22.36
2018-07-02T08:23:59.047Z,22.41
2018-07-02T08:24:56.974Z,22.31
2018-07-02T08:25:56.835Z,22.41
2018-07-02T08:26:56.545Z,22.41
2018-07-02T08:27:56.581Z,22.51
2018-07-02T08:28:56.978Z,22.51
2018-07-02T08:29:56.247Z,22.42
2018-07-02T08:30:55.154Z,22.35
2018-07-02T08:31:56.989Z,22.38
2018-07-02T08:32:57.088Z,22.42
2018-07-02T08:33:57.017Z,22.56
2018-07-02T08:34:56.975Z,22.29
2018-07-02T08:35:57.007Z,22.38
2018-07-02T08:36:56.529Z,22.49
2018-07-02T08:37:57.028Z,22.46
2018-07-02T08:38:57.042Z,22.52
2018-07-02T08:39:56.731Z,22.59
2018-07-02T08:40:58.074Z,22.57
2018-07-02T08:41:57.600Z,22.49
2018-07-02T08:42:56.557Z,22.61
2018-07-02T08:43:57.439Z,22.54
2018-07-02T08:44:57.026Z,22.78
2018-07-02T08:45:56.728Z,22.81
2018-07-02T08:46:57.191Z,22.76
2018-07-02T08:47:57.013Z,22.74
2018-07-02T08:48:56.272Z,22.76
2018-07-02T08:49:57.035Z,22.59
2018-07-02T08:50:57.062Z,22.64
2018-07-02T08:51:56.551Z,22.49
2018-07-02T08:52:57.057Z,22.57
2018-07-02T08:53:56.957Z,22.75
2018-07-02T08:54:56.969Z,22.84
2018-07-02T08:55:59.028Z,22.89
2018-07-02T08:56:58.555Z,22.79
2018-07-02T08:57:56.521Z,22.85
2018-07-02T08:58:57.371Z,22.88
2018-07-02T08:59:56.780Z,22.93
2018-07-02T09:00:56.481Z,22.99
2018-07-02T09:01:56.525Z,23.06
2018-07-02T09:02:59.026Z,23.11
2018-07-02T09:03:56.828Z,22.94
2018-07-02T09:04:57.069Z,22.99
2018-07-02T09:05:56.531Z,22.88
2018-07-02T09:06:55.659Z,22.74
2018-07-02T09:07:59.359Z,22.81
2018-07-02T09:08:57.586Z,22.76
2018-07-02T09:09:56.497Z,22.61
2018-07-02T09:10:56.568Z,22.75
2018-07-02T09:11:59.037Z,22.85
2018-07-02T09:12:56.489Z,22.96
2018-07-02T09:13:57.537Z,23.00
2018-07-02T09:14:57.224Z,23.06
2018-07-02T09:15:59.073Z,23.11
2018-07-02T09:16:57.026Z,23.03
2018-07-02T09:17:57.451Z,23.14
2018-07-02T09:18:56.956Z,23.07
2018-07-02T09:19:57.440Z,23.22
2018-07-02T09:20:57.367Z,23.19
2018-07-02T09:21:57.052Z,23.22
2018-07-02T09:22:56.996Z,23.38
2018-07-02T09:23:57.047Z,23.21
2018-07-02T09:24:56.489Z,23.25
2018-07-02T09:25:57.009Z,23.37
2018-07-02T09:26:57.054Z,23.38
2018-07-02T09:27:55.302Z,23.29
2018-07-02T09:28:57.037Z,23.47
2018-07-02T09:29:57.059Z,23.41
2018-07-02T09:30:56.830Z,23.53
2018-07-02T09:31:56.998Z,23.32
2018-07-02T09:32:57.511Z,23.19
2018-07-02T09:33:56.504Z,23.38
2018-07-02T09:34:57.090Z,23.34
2018-07-02T09:35:58.588Z,23.32
2018-07-02T09:36:56.596Z,23.31
2018-07-02T09:37:57.060Z,23.45
2018-07-02T09:38:57.000Z,23.41
2018-07-02T09:39:56.865Z,23.41
2018-07-02T09:40:59.445Z,23.37
2018-07-02T09:41:57.042Z,23.50
2018-07-02T09:42:56.875Z,23.50
2018-07-02T09:43:56.684Z,23.49
2018-07-02T09:44:56.808Z,23.49
2018-07-02T09:45:58.461Z,23.34
2018-07-02T09:46:57.517Z,23.53
2018-07-02T09:47:57.372Z,23.41
2018-07-02T09:48:56.852Z,23.50
2018-07-02T09:49:57.367Z,23.52
2018-07-02T09:50:57.074Z,23.74
2018-07-02T09:51:56.649Z,23.86
2018-07-02T09:52:57.002Z,23.89
2018-07-02T09:53:56.602Z,23.79
2018-07-02T09:54:56.861Z,23.81
2018-07-02T09:55:57.090Z,23.81
2018-07-02T09:56:57.520Z,23.68
2018-07-02T09:57:56.590Z,23.72
2018-07-02T09:58:58.395Z,23.62
2018-07-02T09:59:57.091Z,23.67
2018-07-02T10:00:56.894Z,23.56
2018-07-02T10:02:01.103Z,23.57
2018-07-02T10:02:57.120Z,23.74
2018-07-02T10:03:56.509Z,23.84
2018-07-02T10:04:59.105Z,23.81
2018-07-02T10:05:57.548Z,23.53
2018-07-02T10:06:56.552Z,23.35
2018-07-02T10:07:57.616Z,23.49
2018-07-02T10:08:57.049Z,23.69
2018-07-02T10:09:58.183Z,23.69
2018-07-02T10:10:55.833Z,23.75
2018-07-02T10:11:57.069Z,23.53
2018-07-02T10:12:56.766Z,23.57
2018-07-02T10:13:56.830Z,23.79
2018-07-02T10:14:59.016Z,23.78
2018-07-02T10:15:59.525Z,23.75
2018-07-02T10:17:03.629Z,23.79
2018-07-02T10:17:56.929Z,23.82
2018-07-02T10:18:57.144Z,23.97
2018-07-02T10:20:11.592Z,23.89
2018-07-02T10:20:57.016Z,23.84
2018-07-02T10:22:11.635Z,23.68
2018-07-02T10:22:57.210Z,23.69
2018-07-02T10:23:57.302Z,23.87
2018-07-02T10:24:56.816Z,24.04
2018-07-02T10:25:58.043Z,23.82
2018-07-02T10:26:57.025Z,23.84
2018-07-02T10:27:59.568Z,23.94
2018-07-02T10:28:57.256Z,23.94
2018-07-02T10:30:00.605Z,23.92
2018-07-02T10:30:57.152Z,24.08
2018-07-02T10:31:57.087Z,24.12
2018-07-02T10:32:59.106Z,24.33
2018-07-02T10:33:55.622Z,24.23
2018-07-02T10:34:57.024Z,24.34
2018-07-02T10:35:56.500Z,24.49
2018-07-02T10:36:56.867Z,24.46
2018-07-02T10:37:56.522Z,24.27
2018-07-02T10:38:57.123Z,24.39
2018-07-02T10:39:57.115Z,24.37
2018-07-02T10:41:00.360Z,24.36
2018-07-02T10:41:59.229Z,24.48
2018-07-02T10:42:57.580Z,24.31
2018-07-02T10:43:59.629Z,24.05
2018-07-02T10:44:57.082Z,24.29
2018-07-02T10:45:56.875Z,24.23
2018-07-02T10:46:55.504Z,24.21
2018-07-02T10:47:57.025Z,24.30
2018-07-02T10:48:57.409Z,24.31
2018-07-02T10:49:57.799Z,24.49
2018-07-02T10:50:59.270Z,24.33
2018-07-02T10:51:58.038Z,24.49
2018-07-02T10:52:57.372Z,24.63
2018-07-02T10:53:57.128Z,24.55
2018-07-02T10:54:57.174Z,24.61
2018-07-02T10:56:18.918Z,24.53
2018-07-02T10:56:57.114Z,24.41
2018-07-02T10:57:59.087Z,24.30
2018-07-02T10:59:00.309Z,24.12
2018-07-02T10:59:57.028Z,24.14
2018-07-02T11:00:59.145Z,24.46
2018-07-02T11:01:57.085Z,24.63
2018-07-02T11:03:06.716Z,24.70
2018-07-02T11:03:57.116Z,24.53
2018-07-02T11:04:57.116Z,24.64
2018-07-02T11:05:56.695Z,24.87
2018-07-02T11:06:57.071Z,25.02
2018-07-02T11:08:01.305Z,24.97
2018-07-02T11:08:56.944Z,24.92
2018-07-02T11:09:58.051Z,24.82
2018-07-02T11:10:56.926Z,24.86
2018-07-02T11:11:57.171Z,25.01
2018-07-02T11:12:57.364Z,25.04
2018-07-02T11:13:59.117Z,25.14
2018-07-02T11:14:57.096Z,24.79
2018-07-02T11:15:56.919Z,24.79
2018-07-02T11:16:56.666Z,25.04
2018-07-02T11:17:56.600Z,25.07
2018-07-02T11:18:57.046Z,24.84
2018-07-02T11:19:57.132Z,25.01
2018-07-02T11:20:57.579Z,25.16
2018-07-02T11:21:59.159Z,25.09
2018-07-02T11:22:59.143Z,25.26
2018-07-02T11:23:57.091Z,25.31
2018-07-02T11:24:57.450Z,25.34
2018-07-02T11:25:58.882Z,25.23
2018-07-02T11:26:56.563Z,25.34
2018-07-02T11:27:58.699Z,25.23
2018-07-02T11:28:59.293Z,25.34
2018-07-02T11:29:56.528Z,25.31
2018-07-02T11:30:57.552Z,25.39
2018-07-02T11:31:57.050Z,25.42
2018-07-02T11:32:57.108Z,25.49
2018-07-02T11:33:58.051Z,25.61
2018-07-02T11:35:00.253Z,25.49
2018-07-02T11:35:57.112Z,25.63
2018-07-02T11:36:57.087Z,25.53
2018-07-02T11:37:57.456Z,25.64
2018-07-02T11:38:55.616Z,25.36
2018-07-02T11:39:57.146Z,25.45
2018-07-02T11:40:59.131Z,25.79
2018-07-02T11:41:57.773Z,26.01
2018-07-02T11:42:57.026Z,26.03
2018-07-02T11:43:59.549Z,26.24
2018-07-02T11:44:58.024Z,26.32
2018-07-02T11:45:57.057Z,26.24
2018-07-02T11:46:56.912Z,25.97
2018-07-02T11:47:56.768Z,25.94
2018-07-02T11:48:57.060Z,25.74
2018-07-02T11:49:57.717Z,25.78
2018-07-02T11:50:57.055Z,25.90
2018-07-02T11:51:57.486Z,26.08
2018-07-02T11:52:57.059Z,26.39
2018-07-02T11:53:57.560Z,26.23
2018-07-02T11:54:58.325Z,26.38
2018-07-02T11:55:57.093Z,26.11
2018-07-02T11:57:03.622Z,26.19
2018-07-02T11:58:03.636Z,26.36
2018-07-02T11:59:03.613Z,26.50
2018-07-02T11:59:59.435Z,26.60
2018-07-02T12:01:05.247Z,26.71
2018-07-02T12:01:57.059Z,26.54
2018-07-02T12:02:57.802Z,26.20
2018-07-02T12:03:57.180Z,26.51
2018-07-02T12:04:57.622Z,26.56
2018-07-02T12:05:57.082Z,26.50
2018-07-02T12:06:57.008Z,26.47
2018-07-02T12:07:58.065Z,26.49
2018-07-02T12:08:57.078Z,26.53
2018-07-02T12:09:57.111Z,26.94
2018-07-02T12:11:06.311Z,26.59
2018-07-02T12:12:04.614Z,26.60
2018-07-02T12:12:59.573Z,26.87
2018-07-02T12:13:57.516Z,26.78
2018-07-02T12:14:59.130Z,26.68
2018-07-02T12:16:01.206Z,26.50
2018-07-02T12:16:56.683Z,26.69
2018-07-02T12:18:03.676Z,26.90
2018-07-02T12:18:57.427Z,26.76
2018-07-02T12:19:58.866Z,26.76
2018-07-02T12:20:57.074Z,26.76
2018-07-02T12:21:57.636Z,27.01
2018-07-02T12:22:57.413Z,27.25
2018-07-02T12:23:57.628Z,27.34
2018-07-02T12:24:57.575Z,27.40
2018-07-02T12:26:12.633Z,27.20
2018-07-02T12:26:58.093Z,27.30
2018-07-02T12:27:58.780Z,27.34
2018-07-02T12:28:59.664Z,27.39
2018-07-02T12:29:56.631Z,27.25
2018-07-02T12:30:58.030Z,27.49
2018-07-02T12:31:57.577Z,27.58
2018-07-02T12:32:57.393Z,27.68
2018-07-02T12:33:58.038Z,27.61
2018-07-02T12:35:00.608Z,27.72
2018-07-02T12:35:57.389Z,27.88
2018-07-02T12:36:57.678Z,27.27
2018-07-02T12:37:57.935Z,27.18
2018-07-02T12:38:57.676Z,27.06
2018-07-02T12:39:59.343Z,27.35
2018-07-02T12:40:59.624Z,27.78
2018-07-02T12:41:57.654Z,28.06
2018-07-02T12:42:57.714Z,27.84
2018-07-02T12:43:58.666Z,28.05
2018-07-02T12:44:59.588Z,28.40
2018-07-02T12:45:59.701Z,28.70
2018-07-02T12:46:57.968Z,28.72
2018-07-02T12:47:57.604Z,28.57
2018-07-02T12:48:57.483Z,28.94
2018-07-02T12:49:59.760Z,29.11
2018-07-02T12:51:00.360Z,29.25
2018-07-02T12:51:57.140Z,29.15
2018-07-02T12:52:57.260Z,29.35